Time;durP1;ratioP1;P1;durP2;ratioP2;P2;SDS_P1;SDS_P2;PMS_P1;PMS_P2;Temp;Humidity;BMP_temperature;BMP_pressure;BME280_temperature;BME280_humidity;BME280_pressure;Samples;Min_cycle;Max_cycle;Signal;HPM_P1;HPM_P2
2023/02/06 00:00:11;;;;;;;16.25;3.80;;;4.10;99.90;;;;;;4917518;29;20047;-90
2023/02/06 00:02:42;;;;;;;18.90;4.00;;;4.00;99.90;;;;;;4929797;29;20046;-92
2023/02/06 00:05:08;;;;;;;21.33;3.47;;;4.10;99.90;;;;;;4912204;29;20055;-92
2023/02/06 00:07:34;;;;;;;14.23;3.30;;;4.00;99.90;;;;;;4913913;29;20044;-92
2023/02/06 00:10:07;;;;;;;17.65;3.47;;;4.00;99.90;;;;;;4927212;29;20043;-92
2023/02/06 00:12:34;;;;;;;17.33;3.10;;;4.00;99.90;;;;;;4907137;29;20040;-92
2023/02/06 00:15:06;;;;;;;19.63;3.75;;;4.00;99.90;;;;;;4921004;29;20469;-92
2023/02/06 00:17:38;;;;;;;18.35;3.75;;;3.90;99.90;;;;;;4919853;29;20047;-93
2023/02/06 00:20:08;;;;;;;15.65;3.20;;;4.00;99.90;;;;;;4911473;29;20131;-92
2023/02/06 00:22:36;;;;;;;12.43;3.20;;;3.90;99.90;;;;;;4919114;29;20497;-92
2023/02/06 00:25:03;;;;;;;15.10;3.40;;;3.90;99.90;;;;;;4910737;29;20048;-93
2023/02/06 00:27:35;;;;;;;16.85;3.45;;;3.90;99.90;;;;;;4910079;29;20050;-93
2023/02/06 00:30:07;;;;;;;18.65;3.53;;;3.90;99.90;;;;;;4911184;29;20493;-94
2023/02/06 00:32:33;;;;;;;15.27;3.67;;;3.90;99.90;;;;;;4932947;29;20044;-93
2023/02/06 00:35:06;;;;;;;19.23;3.15;;;3.90;99.90;;;;;;4913758;29;20040;-93
2023/02/06 00:37:38;;;;;;;12.85;3.15;;;3.90;99.90;;;;;;4902130;29;20100;-92
2023/02/06 00:40:04;;;;;;;17.40;3.58;;;3.90;99.90;;;;;;4901271;29;20044;-92
2023/02/06 00:42:29;;;;;;;12.27;3.50;;;3.90;99.90;;;;;;4906251;29;20480;-92
2023/02/06 00:45:03;;;;;;;16.67;3.55;;;3.80;99.90;;;;;;4951950;23;20072;-91
2023/02/06 00:47:29;;;;;;;19.30;4.03;;;3.80;99.90;;;;;;4917988;29;20090;-91
2023/02/06 00:49:55;;;;;;;18.90;3.30;;;3.80;99.90;;;;;;4931492;29;20086;-92
2023/02/06 00:52:20;;;;;;;13.45;3.20;;;3.80;99.90;;;;;;4918892;29;20043;-89
2023/02/06 00:54:46;;;;;;;18.83;3.20;;;3.80;99.90;;;;;;4920046;29;20257;-93
2023/02/06 00:57:12;;;;;;;14.60;3.22;;;3.80;99.90;;;;;;4928273;29;20063;-93
2023/02/06 00:59:37;;;;;;;15.93;2.90;;;3.90;99.90;;;;;;4918491;29;20035;-92
2023/02/06 01:02:11;;;;;;;16.65;3.70;;;3.80;99.90;;;;;;4940323;29;20494;-92
2023/02/06 01:04:40;;;;;;;13.90;3.08;;;3.80;99.90;;;;;;4925635;29;20058;-93
2023/02/06 01:07:14;;;;;;;13.68;3.28;;;3.90;99.90;;;;;;4933591;29;20047;-93
2023/02/06 01:09:43;;;;;;;16.55;2.80;;;3.80;99.90;;;;;;4937087;29;20047;-92
2023/02/06 01:12:15;;;;;;;15.65;2.95;;;3.80;99.90;;;;;;4900579;29;20055;-91
2023/02/06 01:14:50;;;;;;;15.68;3.30;;;3.80;99.90;;;;;;4932677;29;20094;-93
2023/02/06 01:17:21;;;;;;;13.45;3.05;;;3.80;99.90;;;;;;4919926;29;20052;-92
2023/02/06 01:19:56;;;;;;;14.25;3.35;;;3.80;99.90;;;;;;4939701;29;20411;-92
2023/02/06 01:22:35;;;;;;;13.48;3.50;;;3.80;99.90;;;;;;4934219;29;20548;-92
2023/02/06 01:25:01;;;;;;;17.00;2.85;;;3.80;99.90;;;;;;4939031;29;20038;-92
2023/02/06 01:27:35;;;;;;;20.08;3.08;;;3.80;99.90;;;;;;4918913;29;20130;-92
2023/02/06 01:30:10;;;;;;;12.95;2.65;;;3.80;99.90;;;;;;4921519;29;20055;-92
2023/02/06 01:32:40;;;;;;;13.63;3.17;;;3.80;99.90;;;;;;4920182;29;20043;-93
2023/02/06 01:35:08;;;;;;;13.45;2.70;;;3.80;99.90;;;;;;4926445;29;20122;-92
2023/02/06 01:37:35;;;;;;;16.88;3.33;;;3.80;99.90;;;;;;4957980;29;20047;-93
2023/02/06 01:40:11;;;;;;;14.63;3.17;;;3.80;99.90;;;;;;4926804;29;20048;-92
2023/02/06 01:42:39;;;;;;;16.67;2.97;;;3.80;99.90;;;;;;4940556;29;20079;-92
2023/02/06 01:45:20;;;;;;;16.00;3.25;;;3.80;99.90;;;;;;4939892;29;20070;-93
2023/02/06 01:48:04;;;;;;;11.40;2.67;;;3.80;99.90;;;;;;4952286;29;20493;-93
2023/02/06 01:50:32;;;;;;;17.50;2.88;;;3.80;99.90;;;;;;4944244;29;20518;-92
2023/02/06 01:53:01;;;;;;;13.00;2.80;;;3.80;99.90;;;;;;4940247;29;20043;-91
2023/02/06 01:55:27;;;;;;;13.35;2.92;;;3.80;99.90;;;;;;4939692;29;20052;-93
2023/02/06 01:57:55;;;;;;;16.63;3.08;;;3.80;99.90;;;;;;4940240;29;20047;-93
2023/02/06 02:00:21;;;;;;;13.82;3.33;;;3.80;99.90;;;;;;4922800;29;20058;-91
2023/02/06 02:02:48;;;;;;;16.25;2.83;;;3.80;99.90;;;;;;4927092;29;20047;-91
2023/02/06 02:05:18;;;;;;;17.38;3.33;;;3.80;99.90;;;;;;4930763;29;20055;-92
2023/02/06 02:08:00;;;;;;;15.38;2.83;;;3.80;99.90;;;;;;4923721;29;20114;-92
2023/02/06 02:10:46;;;;;;;16.75;3.67;;;3.80;99.90;;;;;;4938553;29;20059;-91
2023/02/06 02:13:21;;;;;;;14.57;2.80;;;3.80;99.90;;;;;;4935051;29;20138;-93
2023/02/06 02:16:19;;;;;;;17.77;3.25;;;3.80;99.90;;;;;;4940086;29;20049;-91
2023/02/06 02:18:59;;;;;;;16.75;2.75;;;3.80;99.90;;;;;;4906174;29;20063;-93
2023/02/06 02:21:58;;;;;;;19.75;2.80;;;3.80;99.90;;;;;;4923696;29;20043;-91
2023/02/06 02:25:00;;;;;;;15.23;2.33;;;3.80;99.90;;;;;;4923359;29;20047;-92
2023/02/06 02:28:02;;;;;;;13.60;2.63;;;3.80;99.90;;;;;;4930090;29;20200;-92
2023/02/06 02:31:08;;;;;;;15.70;2.80;;;3.80;99.90;;;;;;4924272;29;20062;-93
2023/02/06 02:34:33;;;;;;;13.32;2.80;;;3.80;99.90;;;;;;4953369;29;20552;-92
2023/02/06 02:37:09;;;;;;;13.88;2.42;;;3.80;99.90;;;;;;4873182;29;20622;-92
2023/02/06 02:40:14;;;;;;;12.52;2.63;;;3.80;99.90;;;;;;4894651;29;20102;-91
2023/02/06 02:43:38;;;;;;;12.18;2.60;;;3.80;99.90;;;;;;4935788;29;20051;-90
2023/02/06 02:46:31;;;;;;;11.10;2.47;;;3.70;99.90;;;;;;4940123;29;20066;-93
2023/02/06 02:49:19;;;;;;;12.85;2.90;;;3.70;99.90;;;;;;4941383;29;20145;-93
2023/02/06 02:51:46;;;;;;;16.00;2.45;;;3.70;99.90;;;;;;4932981;29;20399;-91
2023/02/06 02:54:12;;;;;;;16.45;2.70;;;3.70;99.90;;;;;;4922162;29;20825;-92
2023/02/06 02:56:38;;;;;;;13.50;2.50;;;3.70;99.90;;;;;;4937983;29;20126;-92
2023/02/06 02:59:24;;;;;;;12.40;2.63;;;3.70;99.90;;;;;;4920829;29;20122;-92
2023/02/06 03:02:21;;;;;;;14.02;2.65;;;3.80;99.90;;;;;;4934594;29;20039;-94
2023/02/06 03:04:55;;;;;;;16.13;2.33;;;3.70;99.90;;;;;;4938517;29;20039;-92
2023/02/06 03:07:24;;;;;;;11.52;2.50;;;3.70;99.90;;;;;;4921705;29;20058;-92
2023/02/06 03:10:28;;;;;;;11.73;2.35;;;3.70;99.90;;;;;;4940186;29;20126;-92
2023/02/06 03:13:09;;;;;;;9.38;2.33;;;3.70;99.90;;;;;;4926323;29;20055;-93
2023/02/06 03:16:04;;;;;;;14.48;2.63;;;3.70;99.90;;;;;;4938338;29;20047;-92
2023/02/06 03:23:12;;;;;;;16.88;2.42;;;3.70;99.90;;;;;;4921266;29;20043;-92
2023/02/06 03:25:41;;;;;;;14.60;2.10;;;3.60;99.90;;;;;;4902666;29;20076;-92
2023/02/06 03:28:15;;;;;;;12.38;2.35;;;3.60;99.90;;;;;;4913226;29;20039;-92
2023/02/06 03:30:44;;;;;;;16.02;2.30;;;3.60;99.90;;;;;;4927767;29;20087;-92
2023/02/06 03:33:14;;;;;;;13.13;2.38;;;3.60;99.90;;;;;;4926995;29;20051;-93
2023/02/06 03:35:40;;;;;;;12.60;2.50;;;3.60;99.90;;;;;;4902477;29;20245;-93
2023/02/06 03:38:10;;;;;;;10.85;2.28;;;3.60;99.90;;;;;;4902621;29;20040;-92
2023/02/06 03:40:46;;;;;;;13.60;2.30;;;3.60;99.90;;;;;;4901826;29;20485;-92
2023/02/06 03:43:21;;;;;;;13.30;2.42;;;3.60;99.90;;;;;;4919171;29;20071;-94
2023/02/06 03:46:03;;;;;;;15.95;2.53;;;3.60;99.90;;;;;;4929578;23;20074;-92
2023/02/06 03:48:47;;;;;;;10.77;2.45;;;3.60;99.90;;;;;;4903222;29;20100;-94
2023/02/06 03:51:45;;;;;;;10.43;2.40;;;3.50;99.90;;;;;;4919630;29;20063;-92
2023/02/06 03:54:13;;;;;;;13.05;2.13;;;3.50;99.90;;;;;;4902607;29;20044;-93
2023/02/06 03:56:47;;;;;;;10.23;2.33;;;3.60;99.90;;;;;;4919845;29;20052;-93
2023/02/06 03:59:13;;;;;;;13.13;2.30;;;3.60;99.90;;;;;;4912699;29;20043;-94
2023/02/06 04:01:44;;;;;;;11.43;2.30;;;3.50;99.90;;;;;;4920183;29;20090;-93
2023/02/06 04:04:15;;;;;;;10.10;2.20;;;3.60;99.90;;;;;;4917438;29;20040;-92
2023/02/06 04:06:41;;;;;;;13.48;2.40;;;3.50;99.90;;;;;;4919107;29;20048;-93
2023/02/06 04:09:07;;;;;;;11.23;2.05;;;3.50;99.90;;;;;;4920378;29;20172;-92
2023/02/06 04:11:32;;;;;;;13.13;2.30;;;3.50;99.90;;;;;;4922015;29;20051;-92
2023/02/06 04:13:58;;;;;;;14.68;2.70;;;3.50;99.90;;;;;;4918784;29;20043;-93
2023/02/06 04:16:23;;;;;;;10.43;1.90;;;3.60;99.90;;;;;;4911911;29;20081;-94
2023/02/06 04:18:50;;;;;;;14.68;2.05;;;3.50;99.90;;;;;;4908856;29;20048;-93
2023/02/06 04:21:15;;;;;;;11.60;2.15;;;3.50;99.90;;;;;;4913191;29;20392;-93
2023/02/06 04:23:41;;;;;;;12.38;2.40;;;3.50;99.90;;;;;;4923108;29;20051;-93
2023/02/06 04:26:07;;;;;;;10.45;1.92;;;3.50;99.90;;;;;;4910560;29;20048;-93
2023/02/06 04:28:32;;;;;;;10.55;2.60;;;3.50;99.90;;;;;;4930256;29;20044;-94
2023/02/06 04:30:58;;;;;;;12.63;1.88;;;3.50;99.90;;;;;;4920013;29;20048;-92
2023/02/06 04:33:24;;;;;;;12.98;2.03;;;3.50;99.90;;;;;;4920202;29;20448;-92
2023/02/06 04:35:49;;;;;;;10.77;2.22;;;3.50;99.90;;;;;;4918206;29;20043;-94
2023/02/06 04:38:15;;;;;;;14.18;2.13;;;3.50;99.90;;;;;;4917085;29;20074;-92
2023/02/06 04:40:41;;;;;;;9.02;1.92;;;3.50;99.90;;;;;;4936717;29;20051;-93
2023/02/06 04:43:07;;;;;;;10.38;2.20;;;3.50;99.90;;;;;;4920191;29;20134;-93
2023/02/06 04:45:32;;;;;;;16.50;2.53;;;3.50;99.90;;;;;;4932478;29;20051;-93
2023/02/06 04:47:58;;;;;;;13.75;2.40;;;3.50;99.90;;;;;;4935235;29;20048;-92
2023/02/06 04:50:27;;;;;;;11.43;2.38;;;3.50;99.90;;;;;;4917530;29;20044;-92
2023/02/06 04:52:52;;;;;;;10.52;2.10;;;3.50;99.90;;;;;;4914090;29;20051;-93
2023/02/06 04:55:18;;;;;;;11.50;2.05;;;3.50;99.90;;;;;;4919140;29;20040;-93
2023/02/06 04:57:43;;;;;;;12.73;2.30;;;3.50;99.90;;;;;;4919526;29;20054;-92
2023/02/06 05:00:10;;;;;;;8.85;1.98;;;3.50;99.90;;;;;;4918236;29;20051;-91
2023/02/06 05:02:38;;;;;;;11.07;1.95;;;3.50;99.90;;;;;;4901005;29;20504;-92
2023/02/06 05:05:05;;;;;;;11.73;2.10;;;3.50;99.90;;;;;;4901858;29;20485;-92
2023/02/06 05:07:31;;;;;;;10.93;2.33;;;3.50;99.90;;;;;;4919241;29;20052;-92
2023/02/06 05:09:56;;;;;;;14.07;2.20;;;3.50;99.90;;;;;;4922292;29;20167;-92
2023/02/06 05:12:27;;;;;;;11.43;2.17;;;3.50;99.90;;;;;;4939528;29;20046;-93
2023/02/06 05:14:53;;;;;;;7.65;2.35;;;3.50;99.90;;;;;;4930546;29;20500;-94
2023/02/06 05:17:19;;;;;;;10.60;2.00;;;3.50;99.90;;;;;;4919058;29;20046;-92
2023/02/06 05:19:45;;;;;;;10.18;1.85;;;3.50;99.90;;;;;;4930761;29;20404;-94
2023/02/06 05:22:13;;;;;;;9.45;1.98;;;3.50;99.90;;;;;;4920771;29;20565;-93
2023/02/06 05:24:41;;;;;;;8.30;1.73;;;3.50;99.90;;;;;;4923310;29;20044;-92
2023/02/06 05:27:07;;;;;;;8.45;1.88;;;3.50;99.90;;;;;;4918428;29;20046;-93
2023/02/06 05:29:32;;;;;;;14.10;1.92;;;3.50;99.90;;;;;;4918727;29;20051;-95
2023/02/06 05:45:35;;;;;;;13.40;1.88;;;3.50;99.90;;;;;;4918129;29;20127;-90
2023/02/06 05:48:06;;;;;;;11.88;2.20;;;3.50;99.90;;;;;;4934730;29;20051;-90
2023/02/06 05:51:07;;;;;;;9.40;1.90;;;3.50;99.90;;;;;;4891478;29;20191;-89
2023/02/06 05:53:35;;;;;;;9.98;2.00;;;3.50;99.90;;;;;;4819455;29;20061;-90
2023/02/06 05:56:01;;;;;;;12.88;2.10;;;3.50;99.90;;;;;;4907952;29;20059;-90
2023/02/06 05:58:40;;;;;;;10.35;2.42;;;3.50;99.90;;;;;;4904329;29;20040;-91
2023/02/06 06:01:18;;;;;;;14.98;2.47;;;3.50;99.90;;;;;;4906609;29;20070;-90
2023/02/06 06:03:50;;;;;;;10.68;1.95;;;3.50;99.90;;;;;;4927824;29;20108;-89
2023/02/06 06:06:39;;;;;;;10.90;1.90;;;3.50;99.90;;;;;;4896295;29;20052;-88
2023/02/06 06:09:19;;;;;;;8.57;1.75;;;3.50;99.90;;;;;;4896466;29;20078;-89
2023/02/06 06:11:46;;;;;;;8.77;1.90;;;3.50;99.90;;;;;;4917772;29;20048;-89
2023/02/06 06:18:04;;;;;;;11.45;2.03;;;3.50;99.90;;;;;;4900376;29;20048;-89
2023/02/06 06:20:36;;;;;;;8.88;1.98;;;3.50;99.90;;;;;;4927665;29;20091;-89
2023/02/06 06:23:14;;;;;;;12.32;2.20;;;3.50;99.90;;;;;;4915479;29;20091;-89
2023/02/06 06:25:40;;;;;;;13.75;2.63;;;3.50;99.90;;;;;;4895804;29;20044;-90
2023/02/06 06:28:05;;;;;;;10.63;2.20;;;3.50;99.90;;;;;;4891562;29;20042;-88
2023/02/06 06:30:31;;;;;;;12.82;2.30;;;3.50;99.90;;;;;;4893915;29;20059;-88
2023/02/06 06:33:06;;;;;;;11.43;2.15;;;3.50;99.90;;;;;;4900219;29;20041;-89
2023/02/06 06:35:44;;;;;;;13.18;2.20;;;3.50;99.90;;;;;;4910781;29;20083;-89
2023/02/06 06:38:10;;;;;;;10.60;2.05;;;3.50;99.90;;;;;;4912318;29;20052;-88
2023/02/06 06:40:40;;;;;;;10.38;2.10;;;3.60;99.90;;;;;;4907555;23;20048;-93
2023/02/06 06:43:44;;;;;;;12.23;1.85;;;3.50;99.90;;;;;;4933822;23;20123;-93
2023/02/06 06:46:37;;;;;;;13.48;2.00;;;3.60;99.90;;;;;;4883442;23;20076;-93
2023/02/06 06:49:50;;;;;;;12.57;2.60;;;3.50;99.90;;;;;;4899835;29;20063;-93
2023/02/06 06:52:34;;;;;;;10.27;2.08;;;3.50;99.90;;;;;;4914015;29;20060;-93
2023/02/06 06:55:00;;;;;;;11.90;2.20;;;3.60;99.90;;;;;;4903889;29;20514;-93
2023/02/06 06:57:38;;;;;;;;;;;;;;;;;;;;;
2023/02/06 07:00:33;;;;;;;10.23;1.95;;;3.60;99.90;;;;;;4865136;29;20056;-93
2023/02/06 07:03:14;;;;;;;13.05;2.53;;;3.60;99.90;;;;;;4870840;29;20395;-95
2023/02/06 07:05:40;;;;;;;14.30;2.10;;;3.60;99.90;;;;;;4923496;29;20350;-94
2023/02/06 07:08:28;;;;;;;9.88;1.92;;;3.60;99.90;;;;;;4923595;29;20135;-94
2023/02/06 07:11:21;;;;;;;;;;;3.60;99.90;;;;;;4852515;29;20129;-95
2023/02/06 07:13:47;;;;;;;11.60;2.53;;;3.60;99.90;;;;;;4922838;29;19962;-94
2023/02/06 07:16:15;;;;;;;13.57;2.03;;;3.60;99.90;;;;;;4904625;29;20100;-95
2023/02/06 07:18:49;;;;;;;9.00;2.20;;;3.60;99.90;;;;;;4920504;29;20132;-94
2023/02/06 07:21:18;;;;;;;19.80;3.05;;;3.60;99.90;;;;;;4902151;29;20052;-94
2023/02/06 07:23:53;;;;;;;10.15;2.40;;;3.60;99.90;;;;;;4903464;29;20044;-92
2023/02/06 07:26:37;;;;;;;12.23;2.13;;;3.60;99.90;;;;;;4915431;29;20054;-91
2023/02/06 07:29:06;;;;;;;;;;;3.60;99.90;;;;;;4917747;29;20186;-91
2023/02/06 07:31:37;;;;;;;15.85;2.20;;;3.60;99.90;;;;;;4916987;29;19934;-91
2023/02/06 07:34:09;;;;;;;8.75;2.38;;;3.60;99.90;;;;;;4898187;29;20539;-88
2023/02/06 07:36:42;;;;;;;16.85;2.97;;;3.60;99.90;;;;;;4897072;29;20040;-92
2023/02/06 07:39:07;;;;;;;12.73;2.47;;;3.60;99.90;;;;;;4901958;29;20405;-93
2023/02/06 07:41:33;;;;;;;10.07;2.20;;;3.60;99.90;;;;;;4918552;29;20036;-90
2023/02/06 07:44:09;;;;;;;21.23;3.65;;;3.60;99.90;;;;;;4901701;29;20048;-92
2023/02/06 07:46:42;;;;;;;10.73;2.45;;;3.60;99.90;;;;;;4916794;29;20111;-89
2023/02/06 07:49:08;;;;;;;16.48;2.92;;;3.60;99.90;;;;;;4918773;29;20048;-92
2023/02/06 07:51:36;;;;;;;9.43;1.98;;;3.60;99.90;;;;;;4900910;29;20071;-92
2023/02/06 07:54:02;;;;;;;11.05;2.22;;;3.60;99.90;;;;;;4903432;29;20035;-93
2023/02/06 07:56:28;;;;;;;12.02;2.25;;;3.60;99.90;;;;;;4901915;29;20563;-94
2023/02/06 07:58:54;;;;;;;10.65;2.40;;;3.60;99.90;;;;;;4917868;29;20078;-91
2023/02/06 08:01:21;;;;;;;14.02;2.42;;;3.60;99.90;;;;;;4918404;29;20072;-92
2023/02/06 08:03:51;;;;;;;16.17;3.03;;;3.60;99.90;;;;;;4899563;29;20075;-91
2023/02/06 08:06:17;;;;;;;11.82;2.58;;;3.60;99.90;;;;;;4898490;29;20047;-91
2023/02/06 08:08:43;;;;;;;20.77;3.45;;;3.70;99.90;;;;;;4900933;29;20046;-91
2023/02/06 08:11:12;;;;;;;18.48;3.00;;;3.70;99.90;;;;;;4917120;29;20059;-92
2023/02/06 08:13:37;;;;;;;23.52;4.30;;;3.70;99.90;;;;;;4902265;29;20629;-94
2023/02/06 08:16:05;;;;;;;20.98;3.30;;;3.70;99.90;;;;;;4901615;29;20058;-94
2023/02/06 08:18:31;;;;;;;17.48;2.40;;;3.70;99.90;;;;;;4927100;23;20064;-94
2023/02/06 08:21:01;;;;;;;11.40;2.63;;;3.70;99.90;;;;;;4902662;29;20056;-95
2023/02/06 08:23:27;;;;;;;11.48;2.50;;;3.70;99.90;;;;;;4902304;29;20043;-94
2023/02/06 08:26:00;;;;;;;11.10;2.00;;;3.80;99.90;;;;;;4901374;29;20055;-94
2023/02/06 08:28:26;;;;;;;17.48;2.45;;;3.80;99.90;;;;;;4903901;29;20059;-94
2023/02/06 08:30:51;;;;;;;14.45;2.70;;;3.80;99.90;;;;;;4918529;29;20040;-95
2023/02/06 08:33:17;;;;;;;18.42;3.13;;;3.80;99.90;;;;;;4901232;29;20615;-93
2023/02/06 08:35:42;;;;;;;12.32;2.05;;;3.80;99.90;;;;;;4901817;29;20050;-93
2023/02/06 08:38:08;;;;;;;24.45;3.80;;;3.80;99.90;;;;;;4900070;29;20040;-92
2023/02/06 08:40:34;;;;;;;15.98;2.83;;;3.80;99.90;;;;;;4893017;29;20079;-93
2023/02/06 08:42:59;;;;;;;16.85;3.13;;;3.80;99.90;;;;;;4917611;29;20044;-94
2023/02/06 08:45:25;;;;;;;26.50;3.40;;;3.90;99.90;;;;;;4918084;29;20087;-93
2023/02/06 08:47:50;;;;;;;13.52;3.05;;;3.90;99.90;;;;;;4894646;29;20128;-93
2023/02/06 08:50:16;;;;;;;25.48;4.30;;;3.90;99.90;;;;;;4909422;29;20099;-95
2023/02/06 08:52:41;;;;;;;23.98;4.38;;;3.90;99.90;;;;;;4901693;29;20044;-95
2023/02/06 08:55:07;;;;;;;31.48;5.05;;;3.90;99.90;;;;;;4917944;29;20488;-89
2023/02/06 08:57:33;;;;;;;20.73;4.15;;;4.00;99.90;;;;;;4899130;29;20047;-90
2023/02/06 08:59:58;;;;;;;26.60;4.25;;;4.00;99.90;;;;;;4900667;29;20040;-91
2023/02/06 09:02:24;;;;;;;18.77;4.05;;;4.00;99.90;;;;;;4896362;29;20131;-92
2023/02/06 09:04:50;;;;;;;12.73;2.90;;;4.00;99.90;;;;;;4897326;29;20483;-91
2023/02/06 09:07:15;;;;;;;14.10;2.70;;;4.10;99.90;;;;;;4902852;29;20058;-93
2023/02/06 09:09:41;;;;;;;16.52;3.30;;;4.10;99.90;;;;;;4923666;29;20036;-95
2023/02/06 09:12:09;;;;;;;24.23;4.70;;;4.10;99.90;;;;;;4942040;23;20059;-95
2023/02/06 09:14:35;;;;;;;24.73;3.75;;;4.20;99.90;;;;;;4940247;23;20764;-92
2023/02/06 09:17:01;;;;;;;32.17;4.78;;;4.20;99.90;;;;;;4900919;29;20044;-94
2023/02/06 09:19:27;;;;;;;25.20;4.00;;;4.20;99.90;;;;;;4901111;29;20040;-92
2023/02/06 09:21:53;;;;;;;31.20;4.85;;;4.20;99.90;;;;;;4888204;29;20044;-94
2023/02/06 09:24:36;;;;;;;23.38;4.13;;;4.30;99.90;;;;;;4901413;29;20044;-94
2023/02/06 09:27:04;;;;;;;22.25;4.22;;;4.30;99.90;;;;;;4900421;29;20063;-95
2023/02/06 09:29:33;;;;;;;34.95;4.75;;;4.30;99.90;;;;;;4901648;29;20902;-93
2023/02/06 09:32:08;;;;;;;22.75;3.83;;;4.40;99.90;;;;;;4912178;29;20085;-94
2023/02/06 09:34:52;;;;;;;23.92;3.53;;;4.40;99.90;;;;;;4913443;29;20070;-94
2023/02/06 09:37:18;;;;;;;39.30;4.90;;;4.50;99.90;;;;;;4883353;29;20055;-95
2023/02/06 09:39:52;;;;;;;26.70;4.50;;;4.50;99.90;;;;;;4917499;29;20126;-94
2023/02/06 09:42:49;;;;;;;36.38;5.00;;;4.50;99.90;;;;;;4901625;29;20053;-94
2023/02/06 09:45:25;;;;;;;35.10;4.55;;;4.60;99.90;;;;;;4898257;29;20496;-93
2023/02/06 09:48:18;;;;;;;32.55;5.75;;;4.60;99.90;;;;;;4890673;29;20032;-93
2023/02/06 09:51:24;;;;;;;37.50;5.68;;;4.60;99.90;;;;;;4903072;29;20044;-95
2023/02/06 09:54:21;;;;;;;37.05;5.50;;;4.70;99.90;;;;;;4895552;29;20067;-93
2023/02/06 09:57:04;;;;;;;35.25;5.75;;;4.80;99.90;;;;;;4905616;29;20048;-88
2023/02/06 09:59:41;;;;;;;;;;;4.80;99.90;;;;;;4882913;29;20047;-91
2023/02/06 10:02:44;;;;;;;43.25;6.57;;;4.80;99.90;;;;;;4913746;29;19923;-92
2023/02/06 10:05:42;;;;;;;40.95;5.90;;;4.90;99.90;;;;;;4904908;29;20055;-94
2023/02/06 10:08:21;;;;;;;35.60;5.97;;;4.90;99.90;;;;;;4861580;29;20103;-94
2023/02/06 10:10:50;;;;;;;52.83;8.70;;;5.00;99.90;;;;;;4925855;23;20044;-91
2023/02/06 10:13:55;;;;;;;44.03;9.00;;;5.00;99.90;;;;;;4925983;23;20525;-92
2023/02/06 10:16:30;;;;;;;51.83;11.65;;;5.10;99.90;;;;;;4904239;29;20083;-93
2023/02/06 10:19:48;;;;;;;49.13;11.27;;;5.20;99.90;;;;;;4936559;29;20044;-93
2023/02/06 10:22:47;;;;;;;42.95;8.00;;;5.20;99.90;;;;;;4899653;29;20096;-94
2023/02/06 10:25:15;;;;;;;33.47;6.35;;;5.30;99.90;;;;;;4884716;29;20076;-93
2023/02/06 10:31:04;;;;;;;44.28;7.93;;;5.40;99.90;;;;;;4914420;29;20063;-94
2023/02/06 10:34:03;;;;;;;39.83;6.95;;;5.50;99.90;;;;;;4921507;29;20404;-94
2023/02/06 10:36:51;;;;;;;40.22;7.28;;;5.50;99.90;;;;;;4905362;29;20054;-95
2023/02/06 10:40:03;;;;;;;46.50;7.88;;;5.60;99.90;;;;;;4925435;29;20496;-92
2023/02/06 10:43:12;;;;;;;46.00;8.02;;;5.60;99.90;;;;;;4941807;29;20048;-95
2023/02/06 10:46:12;;;;;;;47.03;7.43;;;5.70;99.90;;;;;;4909154;29;20151;-95
2023/02/06 10:48:43;;;;;;;39.58;7.88;;;5.80;99.90;;;;;;4906077;29;20512;-95
2023/02/06 10:55:25;;;;;;;;;;;5.90;99.90;;;;;;4880509;29;20154;-93
2023/02/06 10:58:17;;;;;;;34.97;5.72;;;6.00;99.90;;;;;;4863631;29;19924;-94
2023/02/06 11:01:05;;;;;;;35.65;6.65;;;6.00;99.90;;;;;;4863130;29;20049;-95
2023/02/06 11:03:32;;;;;;;35.38;5.47;;;6.10;99.90;;;;;;4934633;24;20060;-95
2023/02/06 11:06:01;;;;;;;32.90;5.18;;;6.20;99.90;;;;;;4922418;29;20131;-95
2023/02/06 11:08:41;;;;;;;27.50;4.43;;;6.20;99.90;;;;;;4922341;29;20048;-95
2023/02/06 11:11:19;;;;;;;29.13;4.82;;;6.20;99.90;;;;;;4923025;29;20469;-95
2023/02/06 11:13:49;;;;;;;33.78;4.82;;;6.20;99.90;;;;;;4922413;29;20493;-95
2023/02/06 11:16:22;;;;;;;29.15;4.00;;;6.30;99.90;;;;;;4922236;29;20039;-95
2023/02/06 11:18:48;;;;;;;25.83;4.47;;;6.30;99.90;;;;;;4939654;29;20543;-95
2023/02/06 11:21:34;;;;;;;27.50;3.42;;;6.40;99.90;;;;;;4922016;29;20083;-95
2023/02/06 11:41:56;;;;;;;24.98;3.38;;;6.60;99.90;;;;;;4888508;29;20051;-94
2023/02/06 11:45:30;;;;;;;23.25;3.60;;;6.70;99.90;;;;;;4851314;29;20062;-94
2023/02/06 11:55:36;;;;;;;20.15;3.13;;;6.90;99.90;;;;;;4830202;23;20044;-96
2023/02/06 11:58:26;;;;;;;30.67;3.95;;;7.00;99.90;;;;;;4918334;29;20131;-96
2023/02/06 12:01:19;;;;;;;18.52;3.30;;;7.00;99.90;;;;;;4908028;29;20050;-96
2023/02/06 12:04:04;;;;;;;20.13;3.13;;;7.10;99.90;;;;;;4886584;29;20107;-96
2023/02/06 12:06:42;;;;;;;20.77;2.72;;;7.10;99.90;;;;;;4927385;23;20503;-96
2023/02/06 12:09:29;;;;;;;27.10;3.60;;;7.20;99.90;;;;;;4937961;29;20056;-96
2023/02/06 12:12:49;;;;;;;18.88;3.00;;;7.20;99.90;;;;;;4935048;29;20106;-96
2023/02/06 12:16:00;;;;;;;21.40;3.53;;;7.20;99.90;;;;;;4883199;29;20071;-96
2023/02/06 12:18:56;;;;;;;17.63;2.80;;;7.20;99.90;;;;;;4927097;29;20056;-96
2023/02/06 12:23:04;;;;;;;18.95;2.80;;;7.30;99.90;;;;;;5215602;23;20090;-94
2023/02/06 12:25:50;;;;;;;;;;;;;;;;;;;;;
2023/02/06 12:29:00;;;;;;;17.98;2.75;;;7.50;99.90;;;;;;4904665;29;20131;-96
2023/02/06 12:35:42;;;;;;;17.25;2.72;;;7.50;99.90;;;;;;4840341;29;20050;-95
2023/02/06 12:42:44;;;;;;;19.75;3.60;;;7.60;99.90;;;;;;4843345;29;20076;-95
2023/02/06 12:49:02;;;;;;;16.90;2.78;;;7.70;99.90;;;;;;4843164;29;20087;-96
2023/02/06 12:51:56;;;;;;;12.65;1.95;;;7.70;99.90;;;;;;4889104;23;20108;-95
2023/02/06 12:55:11;;;;;;;16.80;2.30;;;7.80;99.90;;;;;;4920531;29;20195;-95
2023/02/06 12:58:08;;;;;;;11.15;2.25;;;7.80;99.90;;;;;;4865167;29;20561;-94
2023/02/06 13:00:59;;;;;;;14.50;2.33;;;7.80;99.90;;;;;;4904616;23;20051;-95
2023/02/06 13:04:22;;;;;;;16.73;2.28;;;7.80;99.90;;;;;;4944338;23;20084;-96
2023/02/06 13:07:29;;;;;;;22.45;2.88;;;7.80;99.90;;;;;;4873292;29;20053;-96
2023/02/06 13:10:37;;;;;;;15.40;2.42;;;7.80;99.90;;;;;;4863843;29;20049;-93
2023/02/06 13:13:05;;;;;;;10.00;2.17;;;7.80;99.90;;;;;;4919154;23;20079;-92
2023/02/06 13:15:59;;;;;;;16.50;2.92;;;7.80;99.90;;;;;;4919949;29;20511;-91
2023/02/06 13:19:01;;;;;;;11.00;2.17;;;7.90;99.90;;;;;;4916193;29;20056;-89
2023/02/06 13:27:45;;;;;;;13.57;2.53;;;7.90;99.90;;;;;;4910480;23;20174;-91
2023/02/06 13:30:42;;;;;;;17.63;2.50;;;8.00;99.90;;;;;;4910437;29;20083;-90
2023/02/06 13:33:15;;;;;;;14.40;2.00;;;8.00;99.90;;;;;;4887514;29;20048;-91
2023/02/06 13:36:17;;;;;;;15.05;2.53;;;8.10;99.90;;;;;;4920897;29;20386;-91
2023/02/06 13:39:31;;;;;;;15.30;2.25;;;8.10;99.90;;;;;;4917726;29;20412;-90
2023/02/06 13:42:44;;;;;;;12.45;1.75;;;8.10;99.90;;;;;;4866939;23;20531;-90
2023/02/06 13:48:39;;;;;;;13.43;2.67;;;8.10;99.90;;;;;;5203628;23;20100;-91
2023/02/06 13:51:42;;;;;;;13.65;2.38;;;8.20;99.90;;;;;;4899310;29;20052;-90
2023/02/06 13:54:30;;;;;;;17.85;2.50;;;8.20;99.90;;;;;;4899178;29;20048;-91
2023/02/06 13:57:26;;;;;;;12.50;2.03;;;8.20;99.90;;;;;;4899069;29;20092;-91
2023/02/06 14:00:00;;;;;;;15.02;2.45;;;8.20;99.90;;;;;;4889919;29;20060;-90
2023/02/06 14:02:47;;;;;;;17.23;2.58;;;8.20;99.90;;;;;;4909861;23;20128;-90
2023/02/06 14:05:21;;;;;;;18.58;2.42;;;8.20;99.90;;;;;;4931558;23;20055;-91
2023/02/06 14:08:58;;;;;;;15.50;2.20;;;8.20;99.90;;;;;;4896155;29;20079;-90
2023/02/06 14:15:44;;;;;;;15.18;2.30;;;8.20;99.90;;;;;;4899667;23;20052;-89
2023/02/06 14:18:51;;;;;;;13.70;2.03;;;8.30;99.90;;;;;;4923636;23;20059;-88
2023/02/06 14:21:57;;;;;;;15.95;2.50;;;8.30;99.90;;;;;;4925720;29;20048;-89
2023/02/06 14:25:13;;;;;;;;;;;;;;;;;;;;;
2023/02/06 14:32:28;;;;;;;12.30;1.90;;;8.40;99.90;;;;;;4888468;29;20045;-93
2023/02/06 14:35:33;;;;;;;10.32;2.13;;;8.40;99.90;;;;;;4880736;29;20044;-91
2023/02/06 14:38:42;;;;;;;16.27;2.00;;;8.40;99.90;;;;;;4885578;29;20073;-91
2023/02/06 14:41:38;;;;;;;14.43;2.08;;;8.40;99.90;;;;;;5153742;23;20030;-90
2023/02/06 14:44:34;;;;;;;10.98;1.83;;;8.40;99.90;;;;;;4879906;29;20124;-91
2023/02/06 14:47:06;;;;;;;18.48;2.40;;;8.40;99.90;;;;;;4896254;29;20044;-89
2023/02/06 14:49:53;;;;;;;18.30;2.88;;;8.40;99.90;;;;;;4880456;29;20055;-91
2023/02/06 14:53:24;;;;;;;17.58;2.65;;;8.40;99.90;;;;;;4931826;23;20196;-93
2023/02/06 14:58:44;;;;;;;11.65;2.30;;;8.40;99.90;;;;;;4886250;29;20048;-92
2023/02/06 15:04:50;;;;;;;17.33;2.40;;;8.40;99.90;;;;;;4894501;23;20043;-95
2023/02/06 15:07:48;;;;;;;13.45;2.40;;;8.40;99.90;;;;;;4921510;29;20044;-92
2023/02/06 15:17:25;;;;;;;14.35;2.33;;;8.40;99.90;;;;;;4863261;29;20045;-92
2023/02/06 15:27:00;;;;;;;13.27;2.22;;;8.30;99.90;;;;;;4910328;29;20179;-89
2023/02/06 15:29:57;;;;;;;11.40;2.00;;;8.30;99.90;;;;;;4834489;29;20478;-91
2023/02/06 15:32:35;;;;;;;16.13;2.25;;;8.30;99.90;;;;;;4892089;29;20051;-91
2023/02/06 15:35:47;;;;;;;11.30;1.90;;;8.40;99.90;;;;;;4907080;29;20044;-92